Time;durP1;ratioP1;P1;durP2;ratioP2;P2;SDS_P1;SDS_P2;PMS_P1;PMS_P2;Temp;Humidity;BMP_temperature;BMP_pressure;BME280_temperature;BME280_humidity;BME280_pressure;Samples;Min_cycle;Max_cycle;Signal;HPM_P1;HPM_P2
2023/06/08 00:01:25;;;;;;;7.90;6.88;;;22.30;95.10;;;;;;5004712;28;20259;-77
2023/06/08 00:03:55;;;;;;;5.88;4.78;;;22.30;94.00;;;;;;5010204;28;20217;-77
2023/06/08 00:06:25;;;;;;;7.75;5.20;;;22.20;93.60;;;;;;5001356;28;20213;-77
2023/06/08 00:08:51;;;;;;;8.13;4.25;;;22.20;93.30;;;;;;5004101;28;20172;-78
2023/06/08 00:11:16;;;;;;;5.30;4.00;;;22.20;93.70;;;;;;5007462;28;20223;-78
2023/06/08 00:13:42;;;;;;;11.57;8.65;;;22.20;94.10;;;;;;5004126;28;20268;-79
2023/06/08 00:16:08;;;;;;;9.93;7.45;;;22.20;94.60;;;;;;5004991;28;20200;-79
2023/06/08 00:18:36;;;;;;;7.72;4.72;;;22.20;95.20;;;;;;5009174;28;20576;-78
2023/06/08 00:21:02;;;;;;;7.30;5.30;;;22.20;96.20;;;;;;5010698;28;20622;-78
2023/06/08 00:23:28;;;;;;;10.20;5.93;;;22.20;96.80;;;;;;5009424;28;20173;-79
2023/06/08 00:25:54;;;;;;;5.68;4.68;;;22.20;97.00;;;;;;5008637;28;20214;-78
2023/06/08 00:28:20;;;;;;;8.90;4.75;;;22.20;96.90;;;;;;5008354;28;20819;-78
2023/06/08 00:30:46;;;;;;;5.80;4.43;;;22.10;96.90;;;;;;5009354;28;20217;-78
2023/06/08 00:33:12;;;;;;;6.95;4.50;;;22.20;97.30;;;;;;5005301;28;20221;-78
2023/06/08 00:35:37;;;;;;;10.02;4.68;;;22.10;97.80;;;;;;5005350;28;20665;-78
2023/06/08 00:38:03;;;;;;;6.50;5.03;;;22.20;98.50;;;;;;5004954;28;20204;-78
2023/06/08 00:40:29;;;;;;;5.57;4.70;;;22.10;98.80;;;;;;5003604;28;20605;-78
2023/06/08 00:42:54;;;;;;;8.50;5.25;;;22.00;99.80;;;;;;5005446;28;20212;-77
2023/06/08 00:45:20;;;;;;;6.32;4.63;;;21.90;99.90;;;;;;5001976;28;20208;-78
2023/06/08 00:47:47;;;;;;;6.78;4.85;;;21.90;99.90;;;;;;5003833;28;20256;-78
2023/06/08 00:50:16;;;;;;;7.35;5.13;;;21.80;99.90;;;;;;5002633;28;20708;-77
2023/06/08 00:52:44;;;;;;;6.38;4.60;;;21.90;99.90;;;;;;5008725;28;20789;-79
2023/06/08 00:55:10;;;;;;;7.25;4.38;;;21.80;99.90;;;;;;5005039;28;20785;-79
2023/06/08 00:57:37;;;;;;;6.70;4.50;;;21.70;99.90;;;;;;5009182;28;20258;-78
2023/06/08 01:00:10;;;;;;;6.82;4.40;;;21.70;99.90;;;;;;5008620;28;20176;-78
2023/06/08 01:02:35;;;;;;;6.50;4.43;;;21.70;99.90;;;;;;5008986;28;20200;-77
2023/06/08 01:05:02;;;;;;;7.07;4.88;;;21.70;99.90;;;;;;5007927;28;20291;-78
2023/06/08 01:07:57;;;;;;;5.90;4.20;;;21.60;99.90;;;;;;5007916;28;20227;-77
2023/06/08 01:11:08;;;;;;;8.38;4.68;;;21.60;99.90;;;;;;5005680;28;20636;-77
2023/06/08 01:13:43;;;;;;;6.32;4.57;;;21.60;99.90;;;;;;4976692;28;20283;-79
2023/06/08 01:16:12;;;;;;;6.22;4.60;;;21.60;99.90;;;;;;5004459;28;20209;-77
2023/06/08 01:18:40;;;;;;;9.68;5.03;;;21.70;99.90;;;;;;5008502;28;20259;-78
2023/06/08 01:21:24;;;;;;;7.25;5.13;;;21.70;99.90;;;;;;5005214;28;20260;-79
2023/06/08 01:24:24;;;;;;;7.72;4.78;;;21.60;99.90;;;;;;5002904;28;20256;-77
2023/06/08 01:26:52;;;;;;;7.38;4.97;;;21.60;99.90;;;;;;4970994;28;20212;-78
2023/06/08 01:29:25;;;;;;;7.53;4.25;;;21.60;99.90;;;;;;5007645;28;20192;-78
2023/06/08 01:31:51;;;;;;;5.63;4.40;;;21.60;99.90;;;;;;5002868;28;20283;-78
2023/06/08 01:34:17;;;;;;;6.05;4.63;;;21.60;99.90;;;;;;5004739;28;20663;-78
2023/06/08 01:36:56;;;;;;;7.55;5.20;;;21.50;99.90;;;;;;5008876;28;20216;-79
2023/06/08 01:39:22;;;;;;;9.45;5.07;;;21.50;99.90;;;;;;5006315;28;20220;-77
2023/06/08 01:41:51;;;;;;;5.85;4.82;;;21.50;99.90;;;;;;5008948;28;20212;-78
2023/06/08 01:44:20;;;;;;;7.07;4.78;;;21.50;99.90;;;;;;5005837;28;20255;-79
2023/06/08 01:46:53;;;;;;;6.32;4.53;;;21.40;99.90;;;;;;5005945;28;20217;-78
2023/06/08 01:49:20;;;;;;;7.32;4.78;;;21.40;99.90;;;;;;5006792;28;20303;-79
2023/06/08 01:51:46;;;;;;;6.03;4.63;;;21.30;99.90;;;;;;5007990;28;20206;-78
2023/06/08 01:54:13;;;;;;;6.45;4.70;;;21.30;99.90;;;;;;5005860;28;20532;-79
2023/06/08 01:56:39;;;;;;;5.68;4.22;;;21.20;99.90;;;;;;5003159;28;20170;-78
2023/06/08 01:59:05;;;;;;;5.53;4.35;;;21.20;99.90;;;;;;5009112;28;20286;-78
2023/06/08 02:01:30;;;;;;;6.10;4.45;;;21.20;99.90;;;;;;5008306;28;20255;-78
2023/06/08 02:03:56;;;;;;;5.60;4.32;;;21.10;99.90;;;;;;5012634;28;20259;-78
2023/06/08 02:06:22;;;;;;;6.40;4.75;;;21.10;99.90;;;;;;5004144;28;20208;-78
2023/06/08 02:08:48;;;;;;;6.03;4.70;;;21.00;99.90;;;;;;5013110;28;20188;-78
2023/06/08 02:11:13;;;;;;;7.45;4.70;;;20.90;99.90;;;;;;5006163;28;20719;-78
2023/06/08 02:13:48;;;;;;;5.40;4.40;;;20.80;99.90;;;;;;5007868;28;20204;-77
2023/06/08 02:16:14;;;;;;;5.50;3.67;;;20.80;99.90;;;;;;5012995;28;20631;-78
2023/06/08 02:18:41;;;;;;;4.82;4.18;;;20.80;99.90;;;;;;5012418;28;20244;-78
2023/06/08 02:21:10;;;;;;;7.57;4.68;;;20.70;99.90;;;;;;5012277;28;20199;-78
2023/06/08 02:23:36;;;;;;;5.65;4.68;;;20.70;99.90;;;;;;5011648;28;20213;-78
2023/06/08 02:26:03;;;;;;;6.70;4.07;;;20.70;99.90;;;;;;5011687;28;20212;-78
2023/06/08 02:28:29;;;;;;;6.10;4.38;;;20.80;99.90;;;;;;5009290;28;20635;-79
2023/06/08 02:30:54;;;;;;;9.15;4.90;;;20.80;99.90;;;;;;5009543;28;20209;-78
2023/06/08 02:33:21;;;;;;;7.20;4.95;;;20.70;99.90;;;;;;5010636;28;20233;-78
2023/06/08 02:35:48;;;;;;;6.47;4.38;;;20.70;99.90;;;;;;5010285;28;20213;-79
2023/06/08 02:38:14;;;;;;;5.90;4.68;;;20.70;99.90;;;;;;5008085;28;20621;-78
2023/06/08 02:40:39;;;;;;;6.45;4.72;;;20.70;99.90;;;;;;5000904;28;20201;-78
2023/06/08 02:43:05;;;;;;;6.72;4.68;;;20.70;99.90;;;;;;5006695;28;20254;-79
2023/06/08 02:45:30;;;;;;;9.18;4.97;;;20.70;99.90;;;;;;5001045;28;20236;-77
2023/06/08 02:47:57;;;;;;;7.05;4.60;;;20.60;99.90;;;;;;5005577;28;20165;-77
2023/06/08 02:50:23;;;;;;;6.38;4.57;;;20.50;99.90;;;;;;5002718;28;20630;-78
2023/06/08 02:52:49;;;;;;;6.80;4.95;;;20.50;99.90;;;;;;5005525;28;20208;-77
2023/06/08 02:55:15;;;;;;;6.35;5.05;;;20.50;99.90;;;;;;5011446;28;20205;-78
2023/06/08 02:57:41;;;;;;;6.80;4.72;;;20.40;99.90;;;;;;5010489;28;20363;-78
2023/06/08 03:00:07;;;;;;;7.28;4.63;;;20.50;99.90;;;;;;5013032;28;20184;-78
2023/06/08 03:02:33;;;;;;;6.20;4.90;;;20.50;99.90;;;;;;5007850;28;20635;-77
2023/06/08 03:05:02;;;;;;;7.25;4.82;;;20.50;99.90;;;;;;5004026;28;20722;-78
2023/06/08 03:07:28;;;;;;;7.38;5.25;;;20.60;99.90;;;;;;5007546;28;20224;-77
2023/06/08 03:09:54;;;;;;;7.20;5.18;;;20.50;99.90;;;;;;5007382;28;20209;-78
2023/06/08 03:12:19;;;;;;;8.23;5.10;;;20.50;99.90;;;;;;5009000;28;20205;-79
2023/06/08 03:14:48;;;;;;;8.82;4.90;;;20.50;99.90;;;;;;5005263;28;20209;-79
2023/06/08 03:17:16;;;;;;;8.02;5.18;;;20.50;99.90;;;;;;5004967;28;20205;-78
2023/06/08 03:19:42;;;;;;;8.75;4.93;;;20.50;99.90;;;;;;5008397;28;20210;-77
2023/06/08 03:22:07;;;;;;;9.45;5.40;;;20.50;99.90;;;;;;5005997;28;20209;-78
2023/06/08 03:24:33;;;;;;;7.85;5.25;;;20.60;99.90;;;;;;5000898;28;20217;-78
2023/06/08 03:27:00;;;;;;;6.55;5.03;;;20.60;99.90;;;;;;5003212;28;20211;-78
2023/06/08 03:29:26;;;;;;;9.27;5.43;;;20.60;99.90;;;;;;5008012;28;20210;-78
2023/06/08 03:31:52;;;;;;;9.30;5.78;;;20.70;99.90;;;;;;5010552;28;20560;-78
2023/06/08 03:34:18;;;;;;;7.10;5.25;;;20.80;99.90;;;;;;5010514;28;20209;-78
2023/06/08 03:36:45;;;;;;;9.38;5.45;;;20.90;99.90;;;;;;5003043;28;20695;-79
2023/06/08 03:39:11;;;;;;;7.20;5.40;;;20.90;99.90;;;;;;5010636;28;20235;-78
2023/06/08 03:41:37;;;;;;;8.85;5.80;;;20.90;99.90;;;;;;5006651;28;20169;-77
2023/06/08 03:44:02;;;;;;;7.20;5.40;;;21.10;99.90;;;;;;5010312;28;20211;-78
2023/06/08 03:46:28;;;;;;;7.07;5.75;;;21.50;99.90;;;;;;5007891;28;20328;-78
2023/06/08 03:48:53;;;;;;;10.43;6.05;;;21.90;99.90;;;;;;5001823;28;20206;-78
2023/06/08 03:51:21;;;;;;;10.00;6.03;;;23.00;99.90;;;;;;5005374;28;20725;-78
2023/06/08 03:53:47;;;;;;;11.88;6.15;;;23.60;98.70;;;;;;5007142;28;20257;-79
2023/06/08 03:56:13;;;;;;;9.48;6.65;;;23.70;97.90;;;;;;5005447;28;20209;-77
2023/06/08 03:58:41;;;;;;;8.85;6.05;;;24.10;97.50;;;;;;5003694;28;20223;-78
2023/06/08 04:01:10;;;;;;;10.10;6.32;;;24.30;96.60;;;;;;5009393;28;20259;-79
2023/06/08 04:03:36;;;;;;;9.95;6.75;;;25.00;95.20;;;;;;5003178;28;20213;-76
2023/06/08 04:06:03;;;;;;;13.38;6.85;;;24.60;94.20;;;;;;5011160;28;20263;-79
2023/06/08 04:08:31;;;;;;;11.90;7.28;;;24.60;94.20;;;;;;5008224;28;20181;-78
2023/06/08 04:10:58;;;;;;;12.27;7.97;;;24.60;94.10;;;;;;5009978;28;20290;-78
2023/06/08 04:13:25;;;;;;;17.88;8.90;;;24.00;94.00;;;;;;5006889;28;20684;-78
2023/06/08 04:15:51;;;;;;;16.40;9.35;;;23.70;94.50;;;;;;5002272;28;20217;-78
2023/06/08 04:18:16;;;;;;;17.85;9.57;;;23.50;94.80;;;;;;5009459;28;20675;-77
2023/06/08 04:20:42;;;;;;;16.35;9.20;;;23.20;95.10;;;;;;5004695;28;20181;-76
2023/06/08 04:23:10;;;;;;;16.15;8.65;;;23.70;94.60;;;;;;5004901;28;20213;-77
2023/06/08 04:25:36;;;;;;;14.85;7.75;;;24.80;93.60;;;;;;5003777;28;20217;-77
2023/06/08 04:28:02;;;;;;;11.50;6.72;;;26.10;91.70;;;;;;5039602;23;20698;-70
2023/06/08 04:30:28;;;;;;;9.07;5.88;;;27.00;90.20;;;;;;5037008;28;20216;-70
2023/06/08 04:32:55;;;;;;;8.57;5.50;;;27.50;87.20;;;;;;5027632;28;20183;-70
2023/06/08 04:35:21;;;;;;;7.65;5.72;;;28.30;85.20;;;;;;5039140;28;20603;-71
2023/06/08 04:37:47;;;;;;;10.00;5.45;;;29.20;82.20;;;;;;5032018;28;20295;-68
2023/06/08 04:40:13;;;;;;;7.10;4.80;;;29.90;79.20;;;;;;5022519;28;20728;-70
2023/06/08 04:42:40;;;;;;;7.88;5.22;;;30.30;77.20;;;;;;5028365;28;20208;-66
2023/06/08 04:45:08;;;;;;;6.32;5.03;;;31.00;75.40;;;;;;5024243;28;20563;-70
2023/06/08 04:47:37;;;;;;;5.75;4.97;;;31.30;72.90;;;;;;5014964;28;20674;-69
2023/06/08 04:50:03;;;;;;;6.07;5.30;;;31.80;70.70;;;;;;5018951;28;20241;-69
2023/06/08 04:52:30;;;;;;;7.68;4.97;;;32.30;68.60;;;;;;5019562;28;20208;-70
2023/06/08 04:55:00;;;;;;;9.35;5.47;;;32.80;67.90;;;;;;5017915;28;20239;-69
2023/06/08 04:57:26;;;;;;;6.55;4.50;;;32.80;67.60;;;;;;5024125;28;20216;-69
2023/06/08 04:59:52;;;;;;;5.82;5.05;;;33.00;65.60;;;;;;5015799;28;20180;-69
2023/06/08 05:02:18;;;;;;;5.90;5.30;;;33.20;65.50;;;;;;5018522;28;20271;-70
2023/06/08 05:04:44;;;;;;;5.20;4.70;;;32.40;63.90;;;;;;5021939;28;20234;-70
2023/06/08 05:07:10;;;;;;;9.82;5.72;;;31.40;65.70;;;;;;5023007;28;20582;-70
2023/06/08 05:09:35;;;;;;;9.68;4.82;;;31.10;66.50;;;;;;5025348;28;20299;-71
2023/06/08 05:12:01;;;;;;;9.82;5.47;;;30.30;67.20;;;;;;5023849;28;20165;-69
2023/06/08 05:14:27;;;;;;;6.07;5.43;;;29.40;68.60;;;;;;5028045;28;20581;-69
2023/06/08 05:16:52;;;;;;;8.88;5.65;;;28.30;70.50;;;;;;5025368;28;20752;-69
2023/06/08 05:19:18;;;;;;;11.60;6.85;;;27.60;73.40;;;;;;5027285;28;20200;-69
2023/06/08 05:21:43;;;;;;;6.13;5.53;;;26.90;74.50;;;;;;5028335;28;20203;-69
2023/06/08 05:24:09;;;;;;;6.97;5.35;;;26.60;76.60;;;;;;5029293;28;20555;-69
2023/06/08 05:26:35;;;;;;;9.35;5.80;;;26.40;77.20;;;;;;5021972;28;20179;-69
2023/06/08 05:29:01;;;;;;;7.97;5.60;;;26.00;77.40;;;;;;5014242;28;20259;-69
2023/06/08 05:31:27;;;;;;;8.57;5.95;;;25.70;78.40;;;;;;5015257;28;20220;-69
2023/06/08 05:33:52;;;;;;;9.27;5.40;;;26.40;79.20;;;;;;5021333;28;20706;-69
2023/06/08 05:36:18;;;;;;;12.00;6.30;;;27.40;77.00;;;;;;5021594;28;20209;-69
2023/06/08 05:38:44;;;;;;;14.10;5.80;;;28.90;74.80;;;;;;5025511;28;20658;-69
2023/06/08 05:41:10;;;;;;;11.77;5.47;;;30.70;71.60;;;;;;5027440;28;20229;-70
2023/06/08 05:43:35;;;;;;;9.77;5.40;;;31.80;68.40;;;;;;5029324;28;20207;-70
2023/06/08 05:46:01;;;;;;;8.32;5.50;;;32.90;65.90;;;;;;5024875;28;20267;-70
2023/06/08 05:48:26;;;;;;;10.98;5.97;;;33.70;64.40;;;;;;5030308;28;20207;-70
2023/06/08 05:50:52;;;;;;;6.65;5.55;;;34.20;61.70;;;;;;5027728;28;20192;-70
2023/06/08 05:53:18;;;;;;;6.28;4.85;;;34.10;60.60;;;;;;5031804;28;20168;-71
2023/06/08 05:55:44;;;;;;;9.27;5.70;;;34.10;60.30;;;;;;5029126;28;20200;-69
2023/06/08 05:58:10;;;;;;;7.47;4.85;;;34.50;59.70;;;;;;5031732;28;20208;-71
2023/06/08 06:00:36;;;;;;;7.88;5.30;;;34.00;59.80;;;;;;5030201;28;20310;-71
2023/06/08 06:03:02;;;;;;;6.53;5.25;;;32.30;61.00;;;;;;5032673;28;20177;-71
2023/06/08 06:05:27;;;;;;;7.07;5.35;;;31.20;64.70;;;;;;5021494;28;20168;-70
2023/06/08 06:07:53;;;;;;;11.20;5.97;;;30.40;66.50;;;;;;5020535;28;20204;-70
2023/06/08 06:10:19;;;;;;;9.93;5.25;;;29.60;67.80;;;;;;5017743;28;20296;-70
2023/06/08 06:12:44;;;;;;;11.27;5.90;;;28.80;69.10;;;;;;5026316;28;20262;-70
2023/06/08 06:15:10;;;;;;;11.52;5.97;;;28.90;70.30;;;;;;5023915;28;20216;-70
2023/06/08 06:17:36;;;;;;;9.45;5.72;;;28.80;70.30;;;;;;5026720;28;20204;-70
2023/06/08 06:20:05;;;;;;;12.60;5.53;;;28.70;71.70;;;;;;5021902;28;20291;-70
2023/06/08 06:22:30;;;;;;;10.18;5.25;;;29.80;70.60;;;;;;5026818;28;20258;-71
2023/06/08 06:24:56;;;;;;;11.32;5.75;;;30.70;68.20;;;;;;5024730;28;20302;-71
2023/06/08 06:27:21;;;;;;;15.02;6.10;;;31.40;68.40;;;;;;5019807;28;20222;-70
2023/06/08 06:29:48;;;;;;;11.05;6.70;;;32.30;66.00;;;;;;5027462;28;20211;-71
2023/06/08 06:32:14;;;;;;;10.68;6.10;;;32.80;63.50;;;;;;5042553;28;20200;-72
2023/06/08 06:34:41;;;;;;;9.30;5.45;;;33.60;63.10;;;;;;5029770;28;20616;-71
2023/06/08 06:37:07;;;;;;;6.93;5.43;;;34.60;61.50;;;;;;5024595;28;20295;-71
2023/06/08 06:39:32;;;;;;;7.55;5.60;;;35.40;59.80;;;;;;5031787;28;20295;-70
2023/06/08 06:41:58;;;;;;;8.32;5.55;;;36.60;58.60;;;;;;5032205;28;20186;-70
2023/06/08 06:44:24;;;;;;;12.35;5.30;;;36.60;57.10;;;;;;5023791;28;20231;-70
2023/06/08 06:46:49;;;;;;;9.77;6.00;;;37.30;57.80;;;;;;5031297;28;20207;-70
2023/06/08 06:49:15;;;;;;;5.40;4.82;;;37.80;56.60;;;;;;5028433;28;20224;-70
2023/06/08 06:51:41;;;;;;;8.27;5.38;;;37.00;55.90;;;;;;5023033;28;20239;-71
2023/06/08 06:54:07;;;;;;;10.75;5.40;;;36.10;56.70;;;;;;5017637;28;20173;-72
2023/06/08 06:56:32;;;;;;;8.45;5.60;;;34.80;57.70;;;;;;5026806;28;20222;-71
2023/06/08 06:58:59;;;;;;;10.02;5.32;;;33.70;59.30;;;;;;5023188;28;20220;-71
2023/06/08 07:01:26;;;;;;;9.30;4.85;;;32.40;61.40;;;;;;5026246;28;20226;-71
2023/06/08 07:03:52;;;;;;;12.50;6.32;;;31.00;64.10;;;;;;5023275;28;20283;-71
2023/06/08 07:06:22;;;;;;;9.60;5.70;;;30.50;65.40;;;;;;5040192;28;20303;-72
2023/06/08 07:08:48;;;;;;;10.05;5.10;;;30.00;66.40;;;;;;5028091;28;20193;-70
2023/06/08 07:11:14;;;;;;;6.95;4.90;;;29.90;67.20;;;;;;5009003;28;20208;-71
2023/06/08 07:13:40;;;;;;;8.75;5.30;;;29.70;68.10;;;;;;5009375;28;20204;-71
2023/06/08 07:16:06;;;;;;;7.85;5.35;;;30.30;67.00;;;;;;5006969;28;20776;-71
2023/06/08 07:18:31;;;;;;;7.05;5.43;;;31.70;66.30;;;;;;5011296;28;20213;-71
2023/06/08 07:20:57;;;;;;;13.02;4.82;;;32.60;64.90;;;;;;5009225;28;20187;-71
2023/06/08 07:23:23;;;;;;;8.63;4.97;;;32.80;63.50;;;;;;5002620;28;20170;-71
2023/06/08 07:25:50;;;;;;;9.93;5.03;;;33.20;62.20;;;;;;5014900;28;20208;-70
2023/06/08 07:28:16;;;;;;;9.30;5.20;;;33.70;61.60;;;;;;5019230;28;20228;-70
2023/06/08 07:30:42;;;;;;;8.57;5.15;;;32.90;62.50;;;;;;5023880;28;20322;-71
2023/06/08 07:33:07;;;;;;;6.72;4.78;;;33.40;61.40;;;;;;5023141;28;20339;-71
2023/06/08 07:35:33;;;;;;;9.80;4.90;;;33.80;60.70;;;;;;5026397;28;20234;-71
2023/06/08 07:37:59;;;;;;;6.03;5.22;;;34.30;60.40;;;;;;5022834;28;20578;-71
2023/06/08 07:40:25;;;;;;;6.95;4.75;;;35.20;59.30;;;;;;5024665;28;20262;-70
2023/06/08 07:42:51;;;;;;;6.82;4.55;;;36.20;58.40;;;;;;5025458;28;20593;-70
2023/06/08 07:45:17;;;;;;;5.68;5.05;;;36.70;56.90;;;;;;5025722;28;20266;-71
2023/06/08 07:47:43;;;;;;;6.55;4.85;;;36.10;56.80;;;;;;5031533;28;20200;-71
2023/06/08 07:50:10;;;;;;;6.28;4.93;;;35.60;57.60;;;;;;5031141;28;20303;-71
2023/06/08 07:52:37;;;;;;;5.80;4.30;;;35.30;58.30;;;;;;5032127;28;20265;-71
2023/06/08 07:55:05;;;;;;;12.32;4.90;;;35.60;58.60;;;;;;5030563;28;20212;-71
2023/06/08 07:57:31;;;;;;;8.88;5.10;;;35.10;58.90;;;;;;5029994;28;20235;-70
2023/06/08 07:59:57;;;;;;;5.85;4.68;;;35.80;58.40;;;;;;5026057;28;20642;-70
2023/06/08 08:02:23;;;;;;;5.93;4.35;;;36.40;57.90;;;;;;5018365;28;20259;-71
2023/06/08 08:04:48;;;;;;;6.35;4.57;;;36.80;57.30;;;;;;5021622;28;20211;-71
2023/06/08 08:07:14;;;;;;;9.10;4.88;;;37.40;56.80;;;;;;5011353;28;20205;-71
2023/06/08 08:09:43;;;;;;;5.72;5.15;;;37.90;56.10;;;;;;5024849;28;20261;-70
2023/06/08 08:12:10;;;;;;;5.68;4.57;;;38.00;55.50;;;;;;5015252;28;20172;-70
2023/06/08 08:14:36;;;;;;;7.72;5.22;;;38.30;55.00;;;;;;5018081;28;20630;-70
2023/06/08 08:17:03;;;;;;;6.53;5.00;;;38.20;54.90;;;;;;5018762;28;20227;-71
2023/06/08 08:19:28;;;;;;;9.20;5.20;;;38.50;55.30;;;;;;5026407;28;20569;-71
2023/06/08 08:21:54;;;;;;;9.15;4.95;;;38.70;54.80;;;;;;5026413;28;20211;-70
2023/06/08 08:24:20;;;;;;;6.60;5.70;;;38.40;54.70;;;;;;5041242;28;20204;-72
2023/06/08 08:26:45;;;;;;;11.23;5.40;;;37.40;54.80;;;;;;5028601;28;20327;-70
2023/06/08 08:29:11;;;;;;;14.32;9.35;;;36.60;56.50;;;;;;5025035;28;20208;-72
2023/06/08 08:31:37;;;;;;;9.73;6.35;;;36.50;57.00;;;;;;5030754;28;20208;-72
2023/06/08 08:34:02;;;;;;;6.63;5.97;;;36.90;57.20;;;;;;5029835;28;20721;-70
2023/06/08 08:36:28;;;;;;;7.40;6.20;;;36.10;56.80;;;;;;5032120;28;20226;-71
2023/06/08 08:38:54;;;;;;;5.80;4.63;;;36.80;57.40;;;;;;5026653;28;20218;-71
2023/06/08 08:41:21;;;;;;;6.20;5.57;;;37.50;56.80;;;;;;5015727;28;20200;-72
2023/06/08 08:43:56;;;;;;;5.57;4.45;;;37.10;56.40;;;;;;5021181;28;20209;-71
2023/06/08 08:46:23;;;;;;;5.55;4.95;;;37.60;55.90;;;;;;5020249;28;20603;-70
2023/06/08 08:48:50;;;;;;;6.47;5.63;;;37.20;55.60;;;;;;5026795;28;20208;-71
2023/06/08 08:51:19;;;;;;;7.35;5.53;;;35.90;56.60;;;;;;5021957;28;20242;-70
2023/06/08 08:53:49;;;;;;;6.68;4.45;;;35.70;57.60;;;;;;5025318;28;20263;-72
2023/06/08 08:56:20;;;;;;;5.75;4.68;;;35.30;58.50;;;;;;5006343;28;20202;-71
2023/06/08 08:58:48;;;;;;;7.88;5.20;;;34.90;58.80;;;;;;5005534;28;20354;-69
2023/06/08 09:01:14;;;;;;;5.88;4.50;;;34.30;57.90;;;;;;5015097;28;20215;-70
2023/06/08 09:03:40;;;;;;;6.00;4.07;;;34.80;57.90;;;;;;5027106;28;20212;-70
2023/06/08 09:06:06;;;;;;;6.43;4.30;;;34.70;57.80;;;;;;5025537;28;20180;-70
2023/06/08 09:08:32;;;;;;;9.02;5.28;;;34.30;58.40;;;;;;5027320;28;20198;-70
2023/06/08 09:11:04;;;;;;;6.93;4.57;;;33.80;59.00;;;;;;5024980;28;20242;-69
2023/06/08 09:13:31;;;;;;;5.20;4.40;;;33.70;59.60;;;;;;5029340;28;20211;-70
2023/06/08 09:16:07;;;;;;;8.27;4.60;;;33.60;59.10;;;;;;5028556;28;20210;-71
2023/06/08 09:18:33;;;;;;;7.22;4.82;;;34.00;59.00;;;;;;5018457;28;20209;-70
2023/06/08 09:21:17;;;;;;;7.30;4.32;;;33.80;59.40;;;;;;5018116;28;20708;-70
2023/06/08 09:24:27;;;;;;;7.25;4.93;;;34.10;59.30;;;;;;5035141;28;20634;-70
2023/06/08 09:26:58;;;;;;;6.18;4.88;;;34.40;58.70;;;;;;5016351;28;20837;-70
2023/06/08 09:29:38;;;;;;;5.70;5.10;;;33.80;59.40;;;;;;5018569;28;20171;-70
2023/06/08 09:32:09;;;;;;;5.40;4.90;;;33.50;60.00;;;;;;5019584;28;20204;-71
2023/06/08 09:34:53;;;;;;;9.90;5.70;;;34.00;60.00;;;;;;5025075;28;20207;-70
2023/06/08 09:37:24;;;;;;;8.05;4.57;;;34.90;60.10;;;;;;5023594;28;20582;-70
2023/06/08 09:39:50;;;;;;;5.10;4.60;;;35.50;58.90;;;;;;5026268;28;20299;-71
2023/06/08 09:42:15;;;;;;;9.07;4.32;;;35.80;58.70;;;;;;5023601;28;20217;-69
2023/06/08 09:44:41;;;;;;;6.80;4.80;;;34.40;58.70;;;;;;5025859;28;20268;-70
2023/06/08 09:47:25;;;;;;;9.00;4.68;;;34.00;59.90;;;;;;5024956;28;20236;-70
2023/06/08 09:49:52;;;;;;;16.83;5.47;;;34.00;61.20;;;;;;5027133;28;20226;-71
2023/06/08 09:52:22;;;;;;;7.35;4.80;;;34.60;60.30;;;;;;5028308;28;20234;-71
2023/06/08 09:54:49;;;;;;;5.93;4.30;;;33.80;60.90;;;;;;5028896;28;20215;-70
2023/06/08 09:57:16;;;;;;;7.45;5.20;;;33.20;61.40;;;;;;5016277;28;20208;-70
2023/06/08 10:00:17;;;;;;;10.18;4.63;;;33.80;61.80;;;;;;5017795;28;20192;-70
2023/06/08 10:03:02;;;;;;;7.53;4.43;;;34.10;60.80;;;;;;5014614;28;20227;-70
2023/06/08 10:05:33;;;;;;;9.60;5.43;;;33.90;60.60;;;;;;5018516;28;20204;-70
2023/06/08 10:08:02;;;;;;;8.65;4.85;;;33.90;60.80;;;;;;5013364;28;20228;-70
2023/06/08 10:10:38;;;;;;;6.35;4.20;;;33.60;61.40;;;;;;5002927;28;20245;-70
2023/06/08 10:13:06;;;;;;;9.30;4.75;;;33.50;61.20;;;;;;5004021;28;20300;-71
2023/06/08 10:15:33;;;;;;;6.30;4.28;;;33.00;60.90;;;;;;5005073;28;20204;-70
2023/06/08 10:18:02;;;;;;;10.07;4.88;;;32.80;62.40;;;;;;5005846;28;20185;-70
2023/06/08 10:20:29;;;;;;;5.80;4.50;;;33.10;61.80;;;;;;5006959;28;20248;-70
2023/06/08 10:22:58;;;;;;;5.78;4.07;;;32.80;62.20;;;;;;5009953;28;20209;-69
2023/06/08 10:25:27;;;;;;;8.85;4.75;;;32.30;62.70;;;;;;5007400;28;20205;-70
2023/06/08 10:27:53;;;;;;;7.03;4.50;;;32.30;63.20;;;;;;5010325;28;20213;-69
2023/06/08 10:30:30;;;;;;;7.28;5.03;;;32.30;63.20;;;;;;5007224;28;20220;-69
2023/06/08 10:33:18;;;;;;;7.18;4.80;;;32.30;63.60;;;;;;5013046;28;20181;-69
2023/06/08 10:36:10;;;;;;;7.38;4.90;;;32.50;63.50;;;;;;5001842;28;20198;-69
2023/06/08 10:38:56;;;;;;;9.10;4.82;;;32.40;63.40;;;;;;5020981;28;20209;-70
2023/06/08 10:41:44;;;;;;;5.70;4.65;;;32.30;62.80;;;;;;5019926;28;20205;-68
2023/06/08 10:44:42;;;;;;;9.00;4.57;;;31.80;63.90;;;;;;5021566;28;20201;-69
2023/06/08 10:47:09;;;;;;;4.53;4.07;;;31.70;64.40;;;;;;4966160;28;20266;-69
2023/06/08 10:49:39;;;;;;;5.97;4.05;;;32.20;64.30;;;;;;5020140;28;20202;-69
2023/06/08 10:52:07;;;;;;;6.78;3.80;;;32.30;63.20;;;;;;5024624;28;20201;-71
2023/06/08 10:55:08;;;;;;;6.85;4.35;;;31.70;63.30;;;;;;5025690;28;20219;-69
2023/06/08 10:57:54;;;;;;;4.65;4.07;;;31.80;64.50;;;;;;5028134;28;20201;-71
2023/06/08 11:00:26;;;;;;;8.65;4.45;;;32.40;64.80;;;;;;5025638;28;20205;-69
2023/06/08 11:02:57;;;;;;;7.80;4.53;;;33.00;63.90;;;;;;5028513;28;20675;-69
2023/06/08 11:05:23;;;;;;;8.07;5.25;;;33.10;62.70;;;;;;5023272;28;20170;-69
2023/06/08 11:07:52;;;;;;;5.28;4.53;;;31.80;64.00;;;;;;5030365;28;20743;-70
2023/06/08 11:10:20;;;;;;;8.73;5.18;;;31.10;65.00;;;;;;5030372;28;20618;-69
2023/06/08 11:12:46;;;;;;;9.65;7.45;;;30.90;66.10;;;;;;5023904;28;20202;-69
2023/06/08 11:15:11;;;;;;;7.85;5.05;;;31.30;65.70;;;;;;5014288;28;20338;-71
2023/06/08 11:17:48;;;;;;;6.10;4.38;;;31.20;64.30;;;;;;5023171;28;20189;-71
2023/06/08 11:20:14;;;;;;;7.70;4.60;;;31.00;64.20;;;;;;5022246;28;20219;-68
2023/06/08 11:22:40;;;;;;;7.57;4.60;;;30.80;64.50;;;;;;5033632;28;20197;-69
2023/06/08 11:25:09;;;;;;;6.38;4.20;;;31.00;65.50;;;;;;5021813;28;20200;-69
2023/06/08 11:27:43;;;;;;;7.18;4.43;;;31.20;64.80;;;;;;5038146;28;20218;-69
2023/06/08 11:30:09;;;;;;;5.97;4.45;;;31.50;64.90;;;;;;5021177;28;20211;-70
2023/06/08 11:32:37;;;;;;;6.40;4.28;;;31.10;65.40;;;;;;5042475;28;20256;-70
2023/06/08 11:35:05;;;;;;;8.90;6.07;;;30.90;66.10;;;;;;5023731;28;20281;-70
2023/06/08 11:37:35;;;;;;;5.22;4.30;;;31.20;65.60;;;;;;5025031;28;20202;-70
2023/06/08 11:40:07;;;;;;;7.60;5.20;;;31.40;65.90;;;;;;5027815;28;20211;-70
2023/06/08 11:42:36;;;;;;;10.38;4.57;;;31.90;65.20;;;;;;5027783;28;20200;-70
2023/06/08 11:45:03;;;;;;;5.78;5.03;;;32.20;65.00;;;;;;5028695;28;20172;-70
2023/06/08 11:47:30;;;;;;;6.25;4.47;;;32.30;64.20;;;;;;5030769;28;20214;-70
2023/06/08 11:49:59;;;;;;;4.53;4.13;;;32.20;62.10;;;;;;5029764;28;20218;-70
2023/06/08 11:52:25;;;;;;;4.25;3.75;;;32.30;61.00;;;;;;5024084;28;20806;-70
2023/06/08 11:54:55;;;;;;;9.40;5.20;;;32.10;62.80;;;;;;5018668;28;20251;-70
2023/06/08 11:57:21;;;;;;;6.20;4.70;;;31.90;62.70;;;;;;5017730;28;20324;-70
2023/06/08 11:59:49;;;;;;;5.97;4.40;;;31.80;63.40;;;;;;5014246;28;20712;-71
2023/06/08 12:02:23;;;;;;;5.13;4.10;;;31.70;63.30;;;;;;5001042;28;20678;-69
2023/06/08 12:04:50;;;;;;;6.47;4.55;;;31.00;64.80;;;;;;4994175;28;20261;-70
2023/06/08 12:07:15;;;;;;;6.85;4.30;;;30.90;65.00;;;;;;5015953;28;20212;-70
2023/06/08 12:09:51;;;;;;;7.10;4.53;;;30.80;65.10;;;;;;5016041;28;20274;-70
2023/06/08 12:12:17;;;;;;;6.57;4.30;;;30.90;65.00;;;;;;5020582;28;20218;-70
2023/06/08 12:14:46;;;;;;;4.45;4.05;;;30.90;65.10;;;;;;5024562;28;20173;-70
2023/06/08 12:17:16;;;;;;;8.63;4.63;;;30.70;62.80;;;;;;5019802;28;20254;-71
2023/06/08 12:19:45;;;;;;;5.18;4.18;;;30.60;63.80;;;;;;5021891;28;20208;-70
2023/06/08 12:22:13;;;;;;;4.97;4.28;;;30.60;65.60;;;;;;5027529;28;20670;-70
2023/06/08 12:24:39;;;;;;;4.78;4.28;;;30.90;66.10;;;;;;5028379;28;20277;-70
2023/06/08 12:27:08;;;;;;;7.88;4.10;;;31.10;65.60;;;;;;5029555;28;20694;-68
2023/06/08 12:29:36;;;;;;;5.25;4.30;;;30.80;65.40;;;;;;5019006;28;20174;-69
2023/06/08 12:32:02;;;;;;;5.28;4.00;;;31.00;66.80;;;;;;5021773;28;20741;-70
2023/06/08 12:34:28;;;;;;;6.65;4.88;;;31.10;65.60;;;;;;5019578;28;20300;-70
2023/06/08 12:36:54;;;;;;;7.60;4.68;;;31.10;65.40;;;;;;5015378;28;20695;-70
2023/06/08 12:39:20;;;;;;;7.97;3.85;;;31.00;64.30;;;;;;5016024;28;20215;-70
2023/06/08 12:41:45;;;;;;;4.93;4.05;;;30.80;63.80;;;;;;5024609;28;20677;-70
2023/06/08 12:44:12;;;;;;;8.55;4.32;;;30.70;64.50;;;;;;5020089;28;20212;-69
2023/06/08 12:46:38;;;;;;;9.05;4.28;;;30.90;64.60;;;;;;5033211;28;20281;-70
2023/06/08 12:49:04;;;;;;;4.95;4.45;;;31.10;64.60;;;;;;5026472;28;20218;-71
2023/06/08 12:51:30;;;;;;;6.82;5.97;;;31.10;64.00;;;;;;5024616;28;20217;-69